Time;durP1;ratioP1;P1;durP2;ratioP2;P2;SDS_P1;SDS_P2;PMS_P1;PMS_P2;Temp;Humidity;BMP_temperature;BMP_pressure;BME280_temperature;BME280_humidity;BME280_pressure;Samples;Min_cycle;Max_cycle;Signal;HPM_P1;HPM_P2
2024/02/27 00:00:34;;;;;;;9.13;7.17;;;9.70;99.90;;;;;;5034738;28;20210;-58
2024/02/27 00:03:01;;;;;;;9.27;8.20;;;9.80;99.90;;;;;;5035379;28;20263;-58
2024/02/27 00:05:29;;;;;;;12.87;7.37;;;9.80;99.90;;;;;;5034418;28;20282;-58
2024/02/27 00:07:56;;;;;;;9.97;7.37;;;9.80;99.90;;;;;;5034696;28;20204;-58
2024/02/27 00:10:23;;;;;;;11.03;7.70;;;9.90;99.90;;;;;;5034822;28;20246;-59
2024/02/27 00:12:50;;;;;;;16.10;8.73;;;9.90;99.90;;;;;;5028634;28;20203;-58
2024/02/27 00:15:17;;;;;;;10.67;7.43;;;9.90;99.90;;;;;;5032094;28;20211;-58
2024/02/27 00:17:44;;;;;;;14.63;7.80;;;10.00;99.90;;;;;;5030854;28;20592;-58
2024/02/27 00:20:11;;;;;;;15.23;7.47;;;10.00;99.90;;;;;;5034900;28;20218;-59
2024/02/27 00:22:39;;;;;;;11.93;8.20;;;10.10;99.90;;;;;;5030886;28;20686;-59
2024/02/27 00:25:06;;;;;;;11.53;7.33;;;10.20;99.90;;;;;;5032469;28;20621;-59
2024/02/27 00:27:33;;;;;;;13.03;7.07;;;10.20;99.90;;;;;;5033798;28;20203;-59
2024/02/27 00:30:03;;;;;;;12.03;8.17;;;10.30;99.90;;;;;;5032115;28;20234;-59
2024/02/27 00:32:30;;;;;;;10.70;7.57;;;10.40;99.90;;;;;;5031823;28;20655;-59
2024/02/27 00:34:57;;;;;;;15.43;8.03;;;10.40;99.90;;;;;;5030905;28;20230;-59
2024/02/27 00:37:24;;;;;;;12.03;8.00;;;10.40;99.90;;;;;;5031547;28;20298;-59
2024/02/27 00:39:51;;;;;;;12.53;7.90;;;10.50;99.90;;;;;;5030317;28;20620;-59
2024/02/27 00:42:18;;;;;;;11.17;7.90;;;10.50;99.90;;;;;;5032781;28;20213;-59
2024/02/27 00:44:45;;;;;;;16.47;8.00;;;10.60;99.90;;;;;;5033578;28;20230;-59
2024/02/27 00:47:12;;;;;;;15.03;7.33;;;10.50;99.90;;;;;;5033027;28;20256;-59
2024/02/27 00:49:40;;;;;;;10.50;7.17;;;10.60;99.90;;;;;;5031744;28;20192;-59
2024/02/27 00:52:08;;;;;;;11.87;7.47;;;10.60;99.90;;;;;;5033651;28;20211;-59
2024/02/27 00:54:36;;;;;;;11.97;7.63;;;10.60;99.90;;;;;;5034093;28;20198;-59
2024/02/27 00:57:04;;;;;;;13.87;6.97;;;10.70;99.90;;;;;;5034783;28;20292;-59
2024/02/27 00:59:31;;;;;;;9.10;6.83;;;10.70;99.90;;;;;;5033364;28;20207;-58
2024/02/27 01:01:58;;;;;;;8.57;6.57;;;10.70;99.90;;;;;;5032900;28;20576;-58
2024/02/27 01:04:25;;;;;;;9.80;6.80;;;10.80;99.90;;;;;;5031251;28;20255;-58
2024/02/27 01:06:52;;;;;;;10.43;7.20;;;10.80;99.90;;;;;;5030610;28;20214;-59
2024/02/27 01:09:19;;;;;;;8.63;6.53;;;10.80;99.90;;;;;;5030866;28;20198;-58
2024/02/27 01:11:46;;;;;;;10.10;5.97;;;10.90;99.90;;;;;;5029911;28;20632;-58
2024/02/27 01:14:14;;;;;;;14.73;6.07;;;11.00;99.90;;;;;;5031228;28;20202;-58
2024/02/27 01:16:42;;;;;;;10.67;6.40;;;11.00;99.90;;;;;;5030798;28;20191;-58
2024/02/27 01:19:09;;;;;;;8.80;5.50;;;11.10;99.90;;;;;;5028646;28;20199;-59
2024/02/27 01:21:42;;;;;;;12.80;5.50;;;11.10;99.90;;;;;;5029922;28;20580;-58
2024/02/27 01:24:09;;;;;;;10.40;5.23;;;11.10;99.90;;;;;;5032737;28;20208;-59
2024/02/27 01:26:36;;;;;;;12.30;5.40;;;11.20;99.90;;;;;;5033160;28;20211;-59
2024/02/27 01:29:03;;;;;;;10.97;5.73;;;11.20;99.90;;;;;;5030626;28;20209;-59
2024/02/27 01:31:30;;;;;;;9.57;6.07;;;11.30;99.90;;;;;;5031330;28;20232;-59
2024/02/27 01:33:58;;;;;;;13.67;4.70;;;11.40;99.90;;;;;;5032043;28;20238;-59
2024/02/27 01:36:25;;;;;;;11.03;5.37;;;11.50;99.90;;;;;;5032326;28;20648;-59
2024/02/27 01:38:52;;;;;;;10.83;5.37;;;11.50;99.90;;;;;;5033585;28;20537;-59
2024/02/27 01:41:20;;;;;;;14.50;5.47;;;11.60;99.90;;;;;;5032470;28;20211;-59
2024/02/27 01:43:47;;;;;;;11.00;5.77;;;11.70;99.90;;;;;;5031949;28;20555;-59
2024/02/27 01:46:20;;;;;;;10.77;5.00;;;11.70;99.90;;;;;;5033307;28;20219;-59
2024/02/27 01:48:48;;;;;;;10.10;5.30;;;11.80;99.90;;;;;;5027561;28;20213;-59
2024/02/27 01:51:15;;;;;;;17.50;5.60;;;11.90;99.90;;;;;;5032496;28;20199;-59
2024/02/27 01:53:48;;;;;;;11.67;4.73;;;11.90;99.90;;;;;;5027637;28;20203;-59
2024/02/27 01:56:17;;;;;;;18.53;4.40;;;11.90;99.90;;;;;;5031386;28;20207;-59
2024/02/27 01:58:46;;;;;;;8.63;4.07;;;12.00;99.90;;;;;;5030071;28;20396;-59
2024/02/27 02:01:14;;;;;;;14.67;4.53;;;12.00;99.90;;;;;;5030336;28;20218;-59
2024/02/27 02:03:41;;;;;;;14.43;4.07;;;12.00;99.90;;;;;;5030347;28;20207;-59
2024/02/27 02:06:09;;;;;;;13.73;4.70;;;12.00;99.90;;;;;;5028954;28;20245;-59
2024/02/27 02:08:38;;;;;;;12.93;4.20;;;12.10;99.90;;;;;;5029130;28;20261;-59
2024/02/27 02:11:10;;;;;;;7.77;3.47;;;12.10;99.90;;;;;;5031615;28;20274;-59
2024/02/27 02:13:37;;;;;;;9.23;3.23;;;12.10;99.90;;;;;;5031435;28;20526;-59
2024/02/27 02:16:05;;;;;;;8.00;3.73;;;12.20;99.90;;;;;;5030169;28;20206;-60
2024/02/27 02:18:32;;;;;;;11.83;3.83;;;12.20;99.90;;;;;;5031475;28;20207;-59
2024/02/27 02:21:00;;;;;;;6.73;3.70;;;12.20;99.90;;;;;;5031069;28;20289;-59
2024/02/27 02:23:29;;;;;;;11.67;3.70;;;12.20;99.90;;;;;;5031956;28;20258;-59
2024/02/27 02:25:58;;;;;;;10.00;3.27;;;12.20;99.90;;;;;;5031436;28;20250;-59
2024/02/27 02:28:25;;;;;;;9.90;2.57;;;12.20;99.90;;;;;;5031067;28;20631;-59
2024/02/27 02:30:52;;;;;;;7.67;3.13;;;12.20;99.90;;;;;;5029621;28;20194;-60
2024/02/27 02:33:19;;;;;;;9.50;4.33;;;12.20;99.90;;;;;;5031151;28;20195;-59
2024/02/27 02:35:47;;;;;;;8.27;3.97;;;12.20;99.90;;;;;;5025657;28;20640;-59
2024/02/27 02:38:14;;;;;;;10.90;4.53;;;12.20;99.90;;;;;;5029158;28;20226;-59
2024/02/27 02:40:41;;;;;;;15.97;4.40;;;12.20;99.90;;;;;;5031211;28;20313;-59
2024/02/27 02:43:08;;;;;;;11.73;4.17;;;12.30;99.90;;;;;;5025828;28;20219;-59
2024/02/27 02:45:35;;;;;;;9.00;3.80;;;12.30;99.90;;;;;;5029708;28;20318;-59
2024/02/27 02:48:03;;;;;;;19.17;4.70;;;12.30;99.90;;;;;;5029527;28;20227;-59
2024/02/27 02:50:31;;;;;;;8.07;3.77;;;12.40;99.90;;;;;;5029903;28;20708;-59
2024/02/27 02:52:58;;;;;;;8.43;3.57;;;12.40;99.90;;;;;;5031726;28;20201;-59
2024/02/27 02:55:26;;;;;;;8.70;3.90;;;12.40;99.90;;;;;;5030567;28;20277;-59
2024/02/27 02:57:53;;;;;;;10.97;3.33;;;12.40;99.90;;;;;;5028041;28;20207;-59
2024/02/27 03:00:20;;;;;;;8.90;3.90;;;12.40;99.90;;;;;;5029134;28;20301;-59
2024/02/27 03:02:47;;;;;;;14.30;4.23;;;12.40;99.90;;;;;;5030383;28;20285;-59
2024/02/27 03:05:15;;;;;;;8.87;3.37;;;12.40;99.90;;;;;;5031373;28;20658;-59
2024/02/27 03:07:42;;;;;;;12.13;3.53;;;12.40;99.90;;;;;;5027936;28;20614;-59
2024/02/27 03:10:09;;;;;;;12.03;3.50;;;12.40;99.90;;;;;;5029219;28;20210;-59
2024/02/27 03:12:44;;;;;;;7.13;3.57;;;12.50;99.90;;;;;;5030643;28;20199;-59
2024/02/27 03:15:12;;;;;;;10.43;3.80;;;12.50;99.90;;;;;;5030687;28;20197;-59
2024/02/27 03:17:40;;;;;;;12.83;3.43;;;12.50;99.90;;;;;;5031715;28;20962;-59
2024/02/27 03:20:09;;;;;;;8.67;3.33;;;12.50;99.90;;;;;;5032225;28;20199;-59
2024/02/27 03:22:37;;;;;;;10.27;4.47;;;12.50;99.90;;;;;;5027470;28;20243;-59
2024/02/27 03:25:05;;;;;;;15.50;4.03;;;12.60;99.90;;;;;;5025900;28;20191;-59
2024/02/27 03:27:33;;;;;;;13.77;4.10;;;12.60;99.90;;;;;;5025997;28;20215;-59
2024/02/27 03:30:01;;;;;;;14.07;3.43;;;12.60;99.90;;;;;;5028090;28;20284;-59
2024/02/27 03:32:29;;;;;;;9.50;3.03;;;12.60;99.90;;;;;;5029448;28;20238;-59
2024/02/27 03:34:56;;;;;;;14.40;4.00;;;12.60;99.90;;;;;;5030024;28;20239;-59
2024/02/27 03:37:24;;;;;;;11.67;3.37;;;12.70;99.90;;;;;;5028297;28;20284;-59
2024/02/27 03:39:51;;;;;;;15.90;3.77;;;12.70;99.90;;;;;;5028679;28;20204;-59
2024/02/27 03:42:18;;;;;;;21.03;4.70;;;12.70;99.90;;;;;;5031913;28;20222;-59
2024/02/27 03:44:48;;;;;;;6.67;3.43;;;12.70;99.90;;;;;;5028014;28;20503;-59
2024/02/27 03:47:15;;;;;;;12.30;4.27;;;12.70;99.90;;;;;;5029248;28;20267;-59
2024/02/27 03:49:42;;;;;;;12.13;3.73;;;12.70;99.90;;;;;;5030741;28;20200;-59
2024/02/27 03:52:10;;;;;;;7.90;3.00;;;12.70;99.90;;;;;;5028430;28;20211;-59
2024/02/27 03:54:38;;;;;;;7.03;4.07;;;12.70;99.90;;;;;;5030980;28;20198;-59
2024/02/27 03:57:05;;;;;;;8.30;2.90;;;12.70;99.90;;;;;;5029466;28;20210;-59
2024/02/27 03:59:32;;;;;;;12.47;3.10;;;12.60;99.90;;;;;;5030336;28;20206;-59
2024/02/27 04:01:59;;;;;;;10.77;3.20;;;12.60;99.90;;;;;;5031590;28;20254;-59
2024/02/27 04:04:27;;;;;;;10.63;3.67;;;12.60;99.90;;;;;;5032760;28;20556;-60
2024/02/27 04:06:54;;;;;;;10.57;3.70;;;12.50;99.90;;;;;;5029167;28;20287;-59
2024/02/27 04:09:21;;;;;;;11.63;4.13;;;12.50;99.90;;;;;;5029462;28;20720;-59
2024/02/27 04:11:49;;;;;;;10.20;4.27;;;12.50;99.90;;;;;;5030536;28;20261;-59
2024/02/27 04:14:16;;;;;;;14.70;4.70;;;12.40;99.90;;;;;;5026662;28;20548;-59
2024/02/27 04:16:43;;;;;;;12.00;5.17;;;12.40;99.90;;;;;;5023740;28;20281;-59
2024/02/27 04:19:10;;;;;;;12.73;4.47;;;12.40;99.90;;;;;;5029575;28;20195;-59
2024/02/27 04:21:37;;;;;;;13.07;4.57;;;12.40;99.90;;;;;;5021222;28;20780;-59
2024/02/27 04:24:05;;;;;;;14.00;4.70;;;12.30;99.90;;;;;;5030665;28;20225;-59
2024/02/27 04:26:32;;;;;;;13.77;5.10;;;12.30;99.90;;;;;;5028973;28;20645;-59
2024/02/27 04:28:59;;;;;;;7.73;4.80;;;12.30;99.90;;;;;;5028807;28;20202;-59
2024/02/27 04:31:26;;;;;;;11.63;4.97;;;12.30;99.90;;;;;;5030147;28;20289;-59
2024/02/27 04:33:53;;;;;;;17.57;4.63;;;12.30;99.90;;;;;;5029692;28;20260;-59
2024/02/27 04:36:21;;;;;;;16.43;4.90;;;12.30;99.90;;;;;;5023536;28;20216;-59
2024/02/27 04:38:48;;;;;;;15.00;4.27;;;12.30;99.90;;;;;;5031298;28;20207;-59
2024/02/27 04:41:16;;;;;;;12.03;4.70;;;12.30;99.90;;;;;;5031979;28;20207;-59
2024/02/27 04:43:43;;;;;;;11.90;4.40;;;12.30;99.90;;;;;;5030781;28;20626;-59
2024/02/27 04:46:10;;;;;;;13.10;4.13;;;12.30;99.90;;;;;;5032704;28;20751;-59
2024/02/27 04:48:38;;;;;;;17.33;5.07;;;12.30;99.90;;;;;;5051566;28;20537;-59
2024/02/27 04:51:06;;;;;;;15.77;4.70;;;12.30;99.90;;;;;;5035530;28;20195;-59
2024/02/27 04:53:33;;;;;;;19.63;5.13;;;12.30;99.90;;;;;;5035715;28;20202;-59
2024/02/27 04:56:02;;;;;;;18.47;4.80;;;12.30;99.90;;;;;;5035232;28;20253;-59
2024/02/27 04:58:29;;;;;;;21.00;5.63;;;12.40;99.90;;;;;;5027295;28;20207;-59
2024/02/27 05:00:57;;;;;;;17.60;5.03;;;12.40;99.90;;;;;;5033617;28;20217;-59
2024/02/27 05:03:24;;;;;;;14.47;4.73;;;12.40;99.90;;;;;;5034523;28;20202;-59
2024/02/27 05:05:51;;;;;;;18.47;4.87;;;12.40;99.90;;;;;;5033066;28;22446;-59
2024/02/27 05:08:19;;;;;;;18.60;4.80;;;12.40;99.90;;;;;;5035287;28;20578;-59
2024/02/27 05:10:46;;;;;;;19.27;4.77;;;12.40;99.90;;;;;;5028749;28;20206;-59
2024/02/27 05:13:13;;;;;;;17.67;5.57;;;12.50;99.90;;;;;;5032164;28;20592;-59
2024/02/27 05:15:41;;;;;;;16.17;5.10;;;12.50;99.90;;;;;;5029836;28;20207;-59
2024/02/27 05:18:08;;;;;;;16.33;4.83;;;12.50;99.90;;;;;;5032186;28;20210;-59
2024/02/27 05:20:36;;;;;;;13.77;4.77;;;12.50;99.90;;;;;;5034596;28;20207;-59
2024/02/27 05:23:04;;;;;;;17.40;4.30;;;12.50;99.90;;;;;;5034077;28;20206;-59
2024/02/27 05:25:32;;;;;;;20.20;5.80;;;12.60;99.90;;;;;;5032568;28;20199;-59
2024/02/27 05:28:00;;;;;;;17.03;5.10;;;12.60;99.90;;;;;;5033775;28;20223;-59
2024/02/27 05:30:28;;;;;;;17.83;4.77;;;12.60;99.90;;;;;;5017978;28;20201;-59
2024/02/27 05:32:55;;;;;;;19.97;5.13;;;12.70;99.90;;;;;;5033732;28;20195;-59
2024/02/27 05:35:23;;;;;;;15.93;4.53;;;12.70;99.90;;;;;;5034075;28;20253;-59
2024/02/27 05:37:52;;;;;;;16.03;5.93;;;12.70;99.90;;;;;;5017573;28;20620;-59
2024/02/27 05:40:21;;;;;;;18.00;5.20;;;12.70;99.90;;;;;;5032686;28;20219;-59
2024/02/27 05:42:49;;;;;;;16.67;5.53;;;12.80;99.90;;;;;;5034468;28;20640;-59
2024/02/27 05:45:17;;;;;;;18.17;6.30;;;12.80;99.90;;;;;;5017027;28;20215;-59
2024/02/27 05:47:46;;;;;;;16.60;4.67;;;12.80;99.90;;;;;;5016594;28;20760;-59
2024/02/27 05:50:13;;;;;;;26.10;5.63;;;12.80;99.90;;;;;;5031307;28;20683;-59
2024/02/27 05:52:41;;;;;;;16.07;4.77;;;12.80;99.90;;;;;;5031515;28;20630;-59
2024/02/27 05:55:09;;;;;;;12.87;4.80;;;12.80;99.90;;;;;;5033651;28;20324;-59
2024/02/27 05:57:37;;;;;;;13.77;4.60;;;12.70;99.90;;;;;;5015581;28;20199;-59
2024/02/27 06:00:07;;;;;;;14.50;4.43;;;12.80;99.90;;;;;;5033472;28;20238;-59
2024/02/27 06:02:36;;;;;;;14.83;4.50;;;12.70;99.90;;;;;;5034153;28;20288;-59
2024/02/27 06:05:04;;;;;;;18.80;4.53;;;12.70;99.90;;;;;;5031620;28;20303;-59
2024/02/27 06:07:33;;;;;;;13.63;4.33;;;12.80;99.90;;;;;;5033913;28;20245;-59
2024/02/27 06:10:02;;;;;;;16.47;5.17;;;12.80;99.90;;;;;;5017024;28;20212;-59
2024/02/27 06:12:31;;;;;;;19.53;5.40;;;12.80;99.90;;;;;;5033688;28;20290;-59
2024/02/27 06:15:01;;;;;;;22.53;8.50;;;12.80;99.90;;;;;;5029893;28;20203;-59
2024/02/27 06:17:29;;;;;;;24.57;16.00;;;12.80;99.90;;;;;;5032517;28;20215;-59
2024/02/27 06:20:00;;;;;;;30.73;16.33;;;12.80;99.90;;;;;;5032454;28;20215;-59
2024/02/27 06:22:31;;;;;;;25.33;16.67;;;12.70;99.90;;;;;;5030871;28;20301;-59
2024/02/27 06:25:00;;;;;;;22.00;15.17;;;12.60;99.90;;;;;;5034600;28;20208;-59
2024/02/27 06:27:29;;;;;;;24.07;16.47;;;12.50;99.90;;;;;;5030031;28;20288;-59
2024/02/27 06:29:57;;;;;;;21.90;16.27;;;12.40;99.90;;;;;;5032911;28;20693;-59
2024/02/27 06:32:25;;;;;;;20.33;15.20;;;12.30;99.90;;;;;;5032391;28;20206;-59
2024/02/27 06:34:54;;;;;;;21.03;15.47;;;12.20;99.90;;;;;;5015754;28;20261;-59
2024/02/27 06:37:22;;;;;;;25.50;16.73;;;12.10;99.90;;;;;;5027845;28;20204;-60
2024/02/27 06:39:54;;;;;;;25.33;16.40;;;12.00;99.90;;;;;;5032158;28;20206;-59
2024/02/27 06:42:24;;;;;;;29.70;17.70;;;12.00;99.90;;;;;;5015017;28;20706;-59
2024/02/27 06:44:52;;;;;;;27.23;18.00;;;11.90;99.90;;;;;;5049519;28;20198;-59
2024/02/27 06:47:20;;;;;;;24.93;17.77;;;11.90;99.90;;;;;;5029814;28;20230;-59
2024/02/27 06:49:49;;;;;;;32.10;18.47;;;11.80;99.90;;;;;;5033085;28;20231;-59
2024/02/27 06:52:17;;;;;;;27.20;17.50;;;11.80;99.90;;;;;;5030638;28;20264;-59
2024/02/27 06:54:45;;;;;;;24.37;17.87;;;11.70;99.90;;;;;;5013717;28;20199;-59
2024/02/27 06:57:12;;;;;;;23.13;16.53;;;11.70;99.90;;;;;;5033636;28;20217;-59
2024/02/27 06:59:41;;;;;;;22.03;15.33;;;11.70;99.90;;;;;;5032052;28;20207;-59
2024/02/27 07:02:11;;;;;;;21.47;16.23;;;11.60;99.90;;;;;;5031352;28;20207;-59
2024/02/27 07:04:40;;;;;;;26.10;17.03;;;11.60;99.90;;;;;;5016716;28;20208;-59
2024/02/27 07:07:09;;;;;;;24.83;17.70;;;11.60;99.90;;;;;;5031976;28;20657;-59
2024/02/27 07:09:38;;;;;;;26.90;19.07;;;11.60;99.90;;;;;;5032441;28;20909;-59
2024/02/27 07:12:06;;;;;;;25.83;18.27;;;11.50;99.90;;;;;;5032588;28;20207;-59
2024/02/27 07:14:40;;;;;;;24.43;17.07;;;11.50;99.90;;;;;;5031900;28;20225;-59
2024/02/27 07:17:08;;;;;;;19.93;16.70;;;11.50;99.90;;;;;;5030486;28;20196;-59
2024/02/27 07:19:43;;;;;;;24.50;17.50;;;11.50;99.90;;;;;;5015874;28;20290;-59
2024/02/27 07:22:12;;;;;;;23.00;17.20;;;11.50;99.90;;;;;;5029773;28;20197;-59
2024/02/27 07:24:41;;;;;;;21.90;15.93;;;11.50;99.90;;;;;;5016801;28;20208;-59
2024/02/27 07:27:10;;;;;;;19.30;13.03;;;11.50;99.90;;;;;;5027747;28;20231;-59
2024/02/27 07:29:38;;;;;;;18.03;11.90;;;11.50;99.90;;;;;;5032507;28;20198;-59
2024/02/27 07:32:06;;;;;;;12.20;10.23;;;11.40;99.90;;;;;;5022467;28;20203;-59
2024/02/27 07:34:35;;;;;;;12.13;9.23;;;11.40;99.90;;;;;;5031770;28;20393;-60
2024/02/27 07:37:05;;;;;;;11.83;8.67;;;11.40;99.90;;;;;;5024937;28;20207;-60
2024/02/27 07:39:34;;;;;;;11.53;8.77;;;11.40;99.90;;;;;;5046600;28;20214;-59
2024/02/27 07:42:03;;;;;;;10.57;8.47;;;11.40;99.90;;;;;;5030408;28;20294;-59
2024/02/27 07:44:32;;;;;;;13.60;9.03;;;11.40;99.90;;;;;;5032252;28;20645;-59
2024/02/27 07:47:01;;;;;;;13.27;9.23;;;11.30;99.90;;;;;;5031231;28;20245;-59
2024/02/27 07:49:29;;;;;;;11.50;8.97;;;11.30;99.90;;;;;;5044434;28;20216;-59
2024/02/27 07:51:57;;;;;;;9.43;8.13;;;11.30;99.90;;;;;;5031613;28;20277;-59
2024/02/27 07:54:25;;;;;;;10.03;8.17;;;11.30;99.90;;;;;;5031861;28;20544;-59
2024/02/27 07:56:53;;;;;;;14.80;8.57;;;11.30;99.90;;;;;;5032775;28;20194;-59
2024/02/27 07:59:21;;;;;;;11.63;8.70;;;11.30;99.90;;;;;;5030536;28;20524;-59
2024/02/27 08:01:49;;;;;;;9.83;8.33;;;11.30;99.90;;;;;;5044886;28;20225;-59
2024/02/27 08:04:17;;;;;;;9.90;8.40;;;11.30;99.90;;;;;;5028639;28;20204;-59
2024/02/27 08:06:47;;;;;;;10.60;8.67;;;11.30;99.90;;;;;;5012788;28;20223;-59
2024/02/27 08:09:16;;;;;;;15.80;8.97;;;11.30;99.90;;;;;;5009420;28;20206;-59
2024/02/27 08:11:44;;;;;;;11.53;8.50;;;11.30;99.90;;;;;;5031048;28;20206;-59
2024/02/27 08:14:12;;;;;;;14.07;8.17;;;11.30;99.90;;;;;;5028444;28;20206;-59
2024/02/27 08:16:41;;;;;;;10.40;8.20;;;11.40;99.90;;;;;;5033725;28;20193;-59
2024/02/27 08:19:09;;;;;;;12.37;8.47;;;11.40;99.90;;;;;;5021557;28;20278;-59
2024/02/27 08:21:38;;;;;;;13.80;8.20;;;11.40;99.90;;;;;;5033729;28;20212;-59
2024/02/27 08:24:11;;;;;;;10.23;7.87;;;11.40;99.90;;;;;;5019613;28;20203;-60
2024/02/27 08:26:39;;;;;;;11.13;8.10;;;11.40;99.90;;;;;;5033988;28;20191;-59
2024/02/27 08:29:10;;;;;;;12.00;8.20;;;11.40;99.90;;;;;;5049578;28;20210;-59
2024/02/27 08:31:38;;;;;;;12.40;7.90;;;11.40;99.90;;;;;;5016219;28;20222;-59
2024/02/27 08:34:05;;;;;;;13.73;8.17;;;11.40;99.90;;;;;;5034588;28;20325;-59
2024/02/27 08:36:33;;;;;;;9.63;8.23;;;11.40;99.90;;;;;;5034760;28;20234;-59
2024/02/27 08:39:02;;;;;;;11.13;8.00;;;11.50;99.90;;;;;;5034056;28;20225;-59
2024/02/27 08:41:33;;;;;;;11.57;8.23;;;11.50;99.90;;;;;;5018702;28;20211;-59
2024/02/27 08:44:02;;;;;;;14.43;8.40;;;11.50;99.90;;;;;;5021067;28;20199;-59
2024/02/27 08:46:30;;;;;;;11.53;7.30;;;11.50;99.90;;;;;;5032867;28;20224;-59
2024/02/27 08:48:59;;;;;;;11.97;7.90;;;11.50;99.90;;;;;;5033248;28;20245;-59
2024/02/27 08:51:29;;;;;;;11.57;8.37;;;11.50;99.90;;;;;;5034667;28;20294;-59
2024/02/27 08:53:58;;;;;;;9.83;7.73;;;11.50;99.90;;;;;;5034931;28;21262;-59
2024/02/27 08:56:26;;;;;;;9.67;7.97;;;11.50;99.90;;;;;;5051739;28;20225;-59
2024/02/27 08:58:54;;;;;;;7.40;6.60;;;11.50;99.90;;;;;;5033926;28;20292;-59
2024/02/27 09:01:22;;;;;;;9.23;6.07;;;11.50;99.90;;;;;;5029562;28;20210;-59
2024/02/27 09:03:50;;;;;;;8.03;5.60;;;11.50;99.90;;;;;;5034407;28;20205;-59
2024/02/27 09:06:20;;;;;;;6.57;5.93;;;11.60;99.90;;;;;;5034244;28;20246;-59
2024/02/27 09:08:48;;;;;;;5.97;5.37;;;11.60;99.90;;;;;;5033479;28;20209;-59
2024/02/27 09:11:16;;;;;;;5.93;5.20;;;11.60;99.90;;;;;;5035424;28;20199;-59
2024/02/27 09:13:44;;;;;;;10.37;5.90;;;11.60;99.90;;;;;;5031733;28;20278;-59
2024/02/27 09:16:12;;;;;;;6.23;5.53;;;11.60;99.90;;;;;;5032489;28;20593;-59
2024/02/27 09:18:43;;;;;;;8.10;6.00;;;11.60;99.90;;;;;;5034184;28;20576;-59
2024/02/27 09:21:13;;;;;;;6.60;5.97;;;11.60;99.90;;;;;;5018525;28;20296;-59
2024/02/27 09:23:42;;;;;;;6.77;5.03;;;11.60;99.90;;;;;;5034720;28;20288;-59
2024/02/27 09:26:11;;;;;;;6.40;4.60;;;11.60;99.90;;;;;;5017791;28;20215;-59
2024/02/27 09:28:39;;;;;;;5.67;5.13;;;11.60;99.90;;;;;;5033831;28;20580;-59
2024/02/27 09:31:08;;;;;;;5.57;4.70;;;11.60;99.90;;;;;;5031998;28;20274;-59
2024/02/27 09:33:46;;;;;;;5.67;5.07;;;11.60;99.90;;;;;;5031239;28;20324;-59
2024/02/27 09:36:14;;;;;;;8.10;5.60;;;11.60;99.90;;;;;;5017969;28;20353;-60
2024/02/27 09:38:42;;;;;;;7.13;4.90;;;11.60;99.90;;;;;;5035031;28;20686;-60
2024/02/27 09:41:33;;;;;;;5.17;4.67;;;11.60;99.90;;;;;;5033135;28;20208;-60
2024/02/27 09:44:02;;;;;;;5.50;5.00;;;11.60;99.90;;;;;;5026790;28;20208;-59
2024/02/27 09:46:33;;;;;;;7.10;5.10;;;11.60;99.90;;;;;;5047552;28;20306;-59
2024/02/27 09:49:03;;;;;;;6.23;5.63;;;11.60;99.90;;;;;;5017146;28;20242;-60
2024/02/27 09:51:35;;;;;;;7.20;5.90;;;11.60;99.90;;;;;;5030456;28;20656;-59
2024/02/27 09:54:05;;;;;;;11.13;7.43;;;11.60;99.90;;;;;;5017145;28;20199;-60
2024/02/27 09:56:35;;;;;;;8.93;6.60;;;11.60;99.90;;;;;;5033197;28;20210;-59
2024/02/27 09:59:03;;;;;;;8.13;6.30;;;11.70;99.90;;;;;;5034225;28;20206;-59
2024/02/27 10:01:35;;;;;;;9.80;7.00;;;11.70;99.90;;;;;;5032865;28;20213;-59
2024/02/27 10:04:06;;;;;;;8.07;6.20;;;11.70;99.90;;;;;;5016932;28;20658;-60
2024/02/27 10:06:37;;;;;;;7.03;5.63;;;11.70;99.90;;;;;;5017548;28;20288;-59
2024/02/27 10:09:11;;;;;;;10.50;6.73;;;11.70;99.90;;;;;;5033392;28;20241;-60
2024/02/27 10:11:39;;;;;;;11.30;6.87;;;11.70;99.90;;;;;;5033931;28;20269;-60
2024/02/27 10:14:28;;;;;;;11.53;7.60;;;11.70;99.90;;;;;;5032741;28;20691;-59
2024/02/27 10:16:57;;;;;;;12.13;7.33;;;11.70;99.90;;;;;;5016257;28;20203;-60
2024/02/27 10:19:29;;;;;;;10.53;6.87;;;11.70;99.90;;;;;;5033028;28;20691;-60
2024/02/27 10:21:59;;;;;;;9.83;5.80;;;11.70;99.90;;;;;;5033812;28;20201;-59
2024/02/27 10:24:28;;;;;;;8.03;5.67;;;11.70;99.90;;;;;;5033306;28;20206;-59
2024/02/27 10:27:01;;;;;;;12.53;5.43;;;11.80;99.90;;;;;;5030177;28;20206;-60
2024/02/27 10:29:31;;;;;;;8.43;5.73;;;11.80;99.90;;;;;;5044887;28;20286;-60
2024/02/27 10:32:02;;;;;;;6.93;6.17;;;11.80;99.90;;;;;;5033210;28;20199;-59
2024/02/27 10:34:31;;;;;;;7.57;5.33;;;11.80;99.90;;;;;;5010223;28;20980;-59
2024/02/27 10:37:03;;;;;;;9.13;6.20;;;11.80;99.90;;;;;;5048550;28;20507;-60
2024/02/27 10:39:35;;;;;;;8.33;6.43;;;11.80;99.90;;;;;;5032194;28;20634;-60
2024/02/27 10:42:04;;;;;;;8.50;6.43;;;11.90;99.90;;;;;;5022770;28;20204;-59
2024/02/27 10:44:33;;;;;;;9.13;6.33;;;11.90;99.90;;;;;;5031940;28;20298;-59
2024/02/27 10:47:01;;;;;;;10.77;6.30;;;11.90;99.90;;;;;;5033372;28;20201;-59
2024/02/27 10:49:29;;;;;;;8.90;6.47;;;11.90;99.90;;;;;;5031519;28;20684;-59
2024/02/27 10:52:00;;;;;;;7.07;6.37;;;11.90;99.90;;;;;;5033273;28;20195;-59
2024/02/27 10:54:29;;;;;;;8.93;6.67;;;11.90;99.90;;;;;;5025365;28;20229;-59
2024/02/27 10:56:57;;;;;;;9.20;6.17;;;11.90;99.90;;;;;;5032480;28;20197;-60
2024/02/27 10:59:27;;;;;;;9.67;7.67;;;11.90;99.90;;;;;;5030589;28;20198;-60
2024/02/27 11:01:59;;;;;;;9.13;7.00;;;11.90;99.90;;;;;;5033165;28;20202;-60
2024/02/27 11:04:34;;;;;;;11.00;7.40;;;11.90;99.90;;;;;;5033589;28;20195;-60
2024/02/27 11:07:05;;;;;;;8.13;7.33;;;11.90;99.90;;;;;;5047089;28;20226;-60
2024/02/27 11:09:34;;;;;;;9.07;6.80;;;12.00;99.90;;;;;;5027509;28;20226;-60
2024/02/27 11:12:08;;;;;;;9.43;6.83;;;12.00;99.90;;;;;;5030513;28;20236;-59
2024/02/27 11:14:42;;;;;;;15.07;7.23;;;12.00;99.90;;;;;;5031277;28;20226;-60
2024/02/27 11:17:23;;;;;;;10.63;6.63;;;12.00;99.90;;;;;;5028663;28;20201;-60
2024/02/27 11:19:52;;;;;;;11.93;7.67;;;12.00;99.90;;;;;;5032683;28;20206;-59
2024/02/27 11:22:21;;;;;;;8.37;6.53;;;12.00;99.90;;;;;;5029286;28;20203;-59
2024/02/27 11:24:49;;;;;;;10.53;6.27;;;12.10;99.90;;;;;;5030655;28;20214;-59
2024/02/27 11:27:23;;;;;;;9.00;6.77;;;12.10;99.90;;;;;;5030357;28;20706;-60
2024/02/27 11:29:52;;;;;;;12.90;6.73;;;12.20;99.90;;;;;;5027572;28;20241;-60
2024/02/27 11:32:21;;;;;;;12.73;6.90;;;12.20;99.90;;;;;;5011898;28;20215;-59
2024/02/27 11:34:49;;;;;;;11.77;7.73;;;12.20;99.90;;;;;;5032223;28;20242;-59
2024/02/27 11:37:20;;;;;;;15.40;6.97;;;12.20;99.90;;;;;;5031133;28;20298;-59
2024/02/27 11:39:48;;;;;;;13.83;6.63;;;12.30;99.90;;;;;;5012881;28;20191;-58
2024/02/27 11:42:47;;;;;;;10.10;6.30;;;12.40;99.90;;;;;;5032656;28;20214;-59
2024/02/27 11:45:25;;;;;;;14.33;6.17;;;12.50;99.90;;;;;;5028393;28;20223;-59
2024/02/27 11:47:53;;;;;;;17.80;6.80;;;12.60;99.90;;;;;;5031459;28;20539;-59
2024/02/27 11:50:37;;;;;;;12.33;7.60;;;12.70;99.90;;;;;;5034601;28;20196;-59
2024/02/27 11:55:47;;;;;;;11.50;5.93;;;12.80;99.90;;;;;;5036123;28;20289;-60
2024/02/27 11:58:15;;;;;;;11.13;6.90;;;12.80;99.90;;;;;;5033869;28;20208;-59
2024/02/27 12:00:44;;;;;;;12.07;5.50;;;12.80;99.90;;;;;;5029418;28;20276;-59
2024/02/27 12:03:12;;;;;;;13.77;5.37;;;12.90;99.90;;;;;;5038192;28;20290;-59
2024/02/27 12:05:43;;;;;;;19.90;5.23;;;12.90;99.90;;;;;;5033055;28;20265;-60
2024/02/27 12:08:11;;;;;;;14.10;5.37;;;13.00;99.90;;;;;;5029704;28;20289;-56
2024/02/27 12:10:39;;;;;;;13.90;4.87;;;13.00;99.90;;;;;;5035902;28;20210;-60
2024/02/27 12:13:07;;;;;;;12.07;4.70;;;13.10;99.90;;;;;;5036612;28;20276;-59
2024/02/27 12:15:36;;;;;;;15.50;4.17;;;13.10;99.90;;;;;;5035856;28;20221;-60
2024/02/27 12:18:04;;;;;;;21.53;4.77;;;13.20;99.90;;;;;;5018918;28;20683;-59
2024/02/27 12:20:32;;;;;;;11.40;4.47;;;13.30;99.90;;;;;;5034838;28;20191;-58
2024/02/27 12:23:00;;;;;;;11.50;4.00;;;13.30;99.90;;;;;;5050538;28;20261;-58
2024/02/27 12:25:41;;;;;;;15.07;4.53;;;13.40;99.90;;;;;;5018600;28;20206;-58
2024/02/27 12:28:09;;;;;;;9.63;4.20;;;13.50;99.90;;;;;;5050986;28;20249;-58
2024/02/27 12:30:43;;;;;;;17.77;5.07;;;13.50;99.90;;;;;;5019440;28;20596;-58
2024/02/27 12:33:12;;;;;;;16.87;4.90;;;13.60;99.90;;;;;;5017299;28;20210;-58
2024/02/27 12:35:43;;;;;;;15.50;4.27;;;13.70;99.90;;;;;;5035268;28;20556;-58
2024/02/27 12:38:11;;;;;;;17.70;4.40;;;13.80;99.90;;;;;;5016487;28;20206;-58
2024/02/27 12:40:41;;;;;;;14.00;4.50;;;13.80;99.90;;;;;;5033147;28;20277;-58
2024/02/27 12:43:09;;;;;;;23.17;5.47;;;13.80;99.90;;;;;;5048260;28;20206;-58
2024/02/27 12:45:37;;;;;;;18.20;5.37;;;13.90;99.90;;;;;;5035848;28;20207;-58
2024/02/27 12:48:07;;;;;;;10.87;3.77;;;13.90;99.90;;;;;;5032946;28;20219;-58